HOURLY OBS INDEX

004

Pilbara - De Grey

BEDOUT ISLAND

Site: 004100
Alt: 8.6m
96km NNE of PORT HEDLAND


  Time     Wind        Temp  DP   Baro     Rain since   Rain past  Vis(m), Cloud(base in m), Weather
  local        km/h                         9am  last   hr   10m    
Tue 04:00    N 30/ 35  27.9 27.6  1008.8   ----  ----  ----  ----   ----- 
Tue 05:00    N 33/ 43  28.1 27.6  1008.5   ----  ----  ----  ----   ----- 
Tue 06:00    N 26/ 32  28.1 27.6  1009.7   ----  ----  ----  ----   ----- 
Tue 07:00    N 19/ 26  28.6 27.9  1010.9   ----  ----  ----  ----   ----- 
Tue 08:00  NNW 13/ 17  29.6 27.4  1011.8   ----  ----  ----  ----   ----- 
Tue 09:00    N 15/ 19  30.0 27.4  1011.9   ----  ----  ----  ----   ----- 

KARRATHA AERO

Site: 004083
Alt: 5.3m
9km WNW of KARRATHA


  Time     Wind        Temp  DP   Baro     Rain since   Rain past  Vis(m), Cloud(base in m), Weather
  local        km/h                         9am  last   hr   10m    
Tue 04:00   NE 43/ 56  25.6 25.3  1003.8   11.0   1.0   1.6   0.4   ----- 
Tue 04:30   NE 46/ 61  25.4 25.1  1004.0   13.0   2.0   3.0   0.4   ----- 
Tue 05:00   NE 43/ 56  25.6 25.3  1004.5   13.2   0.2   2.2   0.0   ----- 
Tue 05:30  NNE 37/ 50  25.9 25.6  1005.2   13.2   0.0   0.2   0.0   ----- 
Tue 06:00   NE 32/ 43  26.3 26.0  1005.8   13.2   0.0   0.0   0.0   ----- 
Tue 06:30  NNE 28/ 35  26.4 25.7  1006.2   13.2   0.0   0.0   0.0   ----- 
Tue 07:00  NNE 28/ 35  26.9 25.3  1006.9   13.2   0.0   0.0   0.0   ----- 
Tue 07:30   NE 24/ 32  27.1 26.2  1007.5   13.2   0.0   0.0   0.0   ----- 
Tue 08:00   NE 28/ 33  27.4 25.4  1007.9   13.2   0.0   0.0   0.0   ----- 
Tue 08:30   NE 24/ 32  27.8 26.2  1008.4   13.2   0.0   0.0   0.0   ----- 
Tue 09:00   NE 28/ 35  28.5 26.3  1008.7   13.2   0.0   0.0   0.0   10000 
Tue 09:23   NE 30/ 35  27.8 26.9  1008.9    0.2   0.2  ----   0.2    6000|SC 840 BR 990 OC1230 
Tue 09:30   NE 28/ 37  26.7 26.2  1008.9    4.4   4.2   4.4   4.4    1400|SC 330 SC 570 BR 870 
Tue 09:52  NNE 28/ 35  28.2 27.1  1009.2    5.4   0.0   0.0   0.0   10000|SC 300 SC 840 SC2100 

MANDORA

Site: 004019
Alt: 7.5m
243km ENE of PORT HEDLAND


  Time     Wind        Temp  DP   Baro     Rain since   Rain past  Vis(m), Cloud(base in m), Weather
  local        km/h                         9am  last   hr   10m    
Tue 04:00    E  6/  7  25.8 25.8  1010.1    2.4   0.0   0.0   0.0   ----- 
Tue 04:30  ESE  6/  7  25.8 25.8  1010.3    2.4   0.0   0.0   0.0   ----- 
Tue 05:00  ESE  7/  9  26.0 26.0  1010.6    2.4   0.0   0.0   0.0   ----- 
Tue 05:30   SE  7/ 11  26.0 26.0  1010.7    2.4   0.0   0.0   0.0   ----- 
Tue 06:00  ESE  7/  9  26.0 26.0  1010.8    2.4   0.0   0.0   0.0   ----- 
Tue 06:30  ESE  6/  9  26.0 26.0  1011.2    2.4   0.0   0.0   0.0   ----- 
Tue 07:00  ESE  7/ 15  26.6 26.6  1011.5    2.4   0.0   0.0   0.0   ----- 
Tue 07:30  ESE  9/ 15  27.5 27.5  1011.8    2.4   0.0   0.0   0.0   ----- 
Tue 08:00    E  9/ 15  29.5 27.9  1012.1    2.4   0.0   0.0   0.0   ----- 
Tue 08:30   SE  9/ 15  30.5 27.1  1012.3    2.4   0.0   0.0   0.0   ----- 
Tue 09:00  ESE  6/ 15  30.9 26.2  1012.3    2.4   0.0   0.0   0.0   ----- 
Tue 09:30  NNE  4/  7  31.1 26.4  1012.2    0.2   0.2   0.2   0.0   ----- 

MARBLE BAR

Site: 004106
Alt: 182.3m
153km SE of PORT HEDLAND


  Time     Wind        Temp  DP   Baro     Rain since   Rain past  Vis(m), Cloud(base in m), Weather
  local        km/h                         9am  last   hr   10m    
Tue 04:00   SE  4/  4  23.7 23.7  1011.8   26.8   0.0   0.0   0.0   ----- 
Tue 04:30    C  0/  4  23.8 23.8  1012.1   26.8   0.0   0.0   0.0   ----- 
Tue 05:00  ESE  7/ 11  24.3 23.8  1012.2   26.8   0.0   0.0   0.0   ----- 
Tue 05:30  ESE 11/ 17  24.4 23.7  1012.3   26.8   0.0   0.0   0.0   ----- 
Tue 06:00  ESE  9/ 11  24.3 23.6  1012.6   26.8   0.0   0.0   0.0   ----- 
Tue 06:30  ESE  2/  4  24.4 23.7  1013.2   26.8   0.0   0.0   0.0   ----- 
Tue 07:00    C  0/  2  24.6 24.4  1013.5   26.8   0.0   0.0   0.0   ----- 
Tue 07:30    C  0/  6  25.2 23.3  1013.8   26.8   0.0   0.0   0.0   ----- 
Tue 08:00  ESE  4/  7  26.3 22.8  1014.1   26.8   0.0   0.0   0.0   ----- 
Tue 08:30    E  4/  7  26.8 22.8  1014.2   26.8   0.0   0.0   0.0   ----- 
Tue 09:00  ENE  7/  9  28.0 23.2  1014.1   26.8   0.0   0.0   0.0   ----- 
Tue 09:30  ENE  9/ 15  29.1 23.1  1013.8    0.0   0.0   0.0   0.0   ----- 

PORT HEDLAND AIRPORT

Site: 004032
Alt: 6.4m
8km SSE of PORT HEDLAND


  Time     Wind        Temp  DP   Baro     Rain since   Rain past  Vis(m), Cloud(base in m), Weather
  local        km/h                         9am  last   hr   10m    
Tue 04:00  NNE 28/ 39  27.4 25.0  1008.3  135.8   0.0   0.0   0.0   10000|SC1260 
Tue 04:30    N 17/ 20  27.2 25.0  1009.1  135.8   0.0   0.0   0.0   10000|BR 630 
Tue 05:00    N 22/ 30  27.4 24.8  1009.2  135.8   0.0   0.0   0.0   10000|SC 810 SC1620 BR2220 
Tue 05:30  NNE 24/ 32  27.4 24.8  1009.8  135.8   0.0   0.0   0.0   10000|SC1050 
Tue 06:00  NNE 13/ 15  27.1 25.1  1010.8  135.8   0.0   0.0   0.0   10000|SC 660 SC1170 BR1650 
Tue 06:30  ENE  7/ 11  26.8 25.2  1011.2  135.8   0.0   0.0   0.0   10000|SC2760 BR3150 
Tue 06:58  ENE 19/ 28  25.3 23.5  1011.4  136.2   0.4  ----   0.4    6000|SC 540 BR1530 BR2340 
Tue 07:00  ENE 20/ 28  25.3 23.5  1011.4  136.4   0.2   0.6   0.6    6000|SC 540 BR1290 BR2250 
Tue 07:13  ENE 19/ 24  25.7 23.7  1011.4  136.8   0.4  ----   0.2   10000|SC 540 SC1080 BR1530 
Tue 07:30    E 17/ 24  26.2 25.0  1011.6  136.8   0.0   1.0   0.0   10000|BR 540 BR1020 BR2070 
Tue 08:00  ENE 15/ 19  26.8 25.0  1011.7  136.8   0.0   0.4   0.0   10000|SC 870 SC2280 
Tue 08:30    E 15/ 20  27.0 25.6  1011.9  136.8   0.0   0.0   0.0   10000|SC 630 SC 900 SC1230 
Tue 09:00    E 15/ 17  27.3 26.2  1012.0  136.8   0.0   0.0   0.0   10000|SC 570 
Tue 09:30  ENE 17/ 20  28.0 26.2  1011.9    0.0   0.0   0.0   0.0   10000|SC 690 

ROEBOURNE AERO

Site: 004090
Alt: 10.7m
31km E of KARRATHA


  Time     Wind        Temp  DP   Baro     Rain since   Rain past  Vis(m), Cloud(base in m), Weather
  local        km/h                         9am  last   hr   10m    
Tue 04:00  NNE 37/ 46  25.7 25.7  1005.8  290.6  22.6 131.0  14.0   ----- 
Tue 04:30  NNE 30/ 39  25.8 25.8  1006.5  332.0  41.4 115.0   4.2   ----- 
Tue 05:00    N 28/ 37  25.9 25.2  1006.7  332.4   0.4  41.8   0.0   ----- 
Tue 05:30  NNE 24/ 32  26.2 25.7  1007.0  332.4   0.0   0.4   0.0   ----- 
Tue 06:00   NE 26/ 33  26.3 26.0  1007.8  332.4   0.0   0.0   0.0   ----- 
Tue 06:30   NE 30/ 43  26.3 25.8  1008.0  333.0   0.6   0.6   0.6   ----- 
Tue 07:00   NE 32/ 41  26.2 26.0  1008.6  334.2   1.2   1.8   0.6   ----- 
Tue 07:30   NE 28/ 39  25.7 25.5  1009.1  337.4   3.2   4.4   2.8   ----- 
Tue 08:00   NE 28/ 33  26.4 26.2  1009.4  359.6  22.2  25.4  10.4   ----- 
Tue 08:30   NE 33/ 41  26.1 25.8  1009.8  423.2  63.6  85.8  23.4   ----- 
Tue 09:00   NE 30/ 43  26.0 25.7  1010.1  458.6  35.4  99.0  10.2   ----- 
Tue 09:30  ENE 33/ 43  26.4 25.9  1010.3    4.4   4.4   4.4   1.2   -----